DUZEAR1 KROA-KHSP
Flight info
| Callsign | DUZEAR1 |
|---|---|
| Flight time | 0h 15m |
| Altitude | 7000 |
| Route | KROA/06 N0249F070 SCUTA3 SCUTA DCT HOBOS DCT KHSP/25 |
| Aircraft | PC12/L-SDE2FGIRWY/SB1 |
Departure
| Time | 2026-05-08 20:22 |
|---|---|
| Airport | Roanoke–Blacksburg Regional Airport (KROA) |
Arrival
| Time | 2026-05-08 20:37 |
|---|---|
| Airport | Ingalls Field (KHSP) |
| Time | Latitude | Longitude | Altitude | Speed | Heading |
|---|---|---|---|---|---|
| 2026-05-08 20:22 | 37.58743 | -79.76947 | 6991 ft | 257 kts | 31° |
| 2026-05-08 20:22 | 37.60355 | -79.75996 | 6987 ft | 256 kts | 14° |
| 2026-05-08 20:22 | 37.61529 | -79.75696 | 7001 ft | 255 kts | 4° |
| 2026-05-08 20:23 | 37.63857 | -79.75373 | 7003 ft | 255 kts | 4° |
| 2026-05-08 20:23 | 37.65619 | -79.75113 | 6995 ft | 254 kts | 4° |
| 2026-05-08 20:23 | 37.67374 | -79.74850 | 6994 ft | 254 kts | 4° |
| 2026-05-08 20:23 | 37.69133 | -79.74602 | 7012 ft | 255 kts | 4° |
| 2026-05-08 20:24 | 37.70887 | -79.74336 | 6993 ft | 254 kts | 6° |
| 2026-05-08 20:24 | 37.72543 | -79.73648 | 6987 ft | 233 kts | 23° |
| 2026-05-08 20:24 | 37.73890 | -79.72813 | 6980 ft | 195 kts | 23° |
| 2026-05-08 20:24 | 37.75060 | -79.72121 | 6973 ft | 178 kts | 21° |
| 2026-05-08 20:25 | 37.76181 | -79.71463 | 6990 ft | 178 kts | 22° |
| 2026-05-08 20:25 | 37.77291 | -79.70800 | 6987 ft | 174 kts | 22° |
| 2026-05-08 20:25 | 37.78383 | -79.70146 | 6997 ft | 175 kts | 22° |
| 2026-05-08 20:25 | 37.79483 | -79.69490 | 6999 ft | 175 kts | 22° |
| 2026-05-08 20:26 | 37.80586 | -79.68831 | 6996 ft | 175 kts | 22° |
| 2026-05-08 20:26 | 37.81685 | -79.68170 | 6995 ft | 175 kts | 22° |
| 2026-05-08 20:26 | 37.82777 | -79.67517 | 6995 ft | 173 kts | 22° |
| 2026-05-08 20:26 | 37.83876 | -79.66860 | 6995 ft | 176 kts | 22° |
| 2026-05-08 20:27 | 37.84983 | -79.66195 | 6998 ft | 176 kts | 22° |
| 2026-05-08 20:27 | 37.86091 | -79.65531 | 6999 ft | 174 kts | 22° |
| 2026-05-08 20:27 | 37.87182 | -79.64877 | 6999 ft | 175 kts | 22° |
| 2026-05-08 20:27 | 37.88279 | -79.64221 | 6998 ft | 175 kts | 22° |
| 2026-05-08 20:28 | 37.89367 | -79.63571 | 6991 ft | 174 kts | 22° |
| 2026-05-08 20:28 | 37.90480 | -79.62900 | 6998 ft | 175 kts | 22° |
| 2026-05-08 20:28 | 37.91584 | -79.62238 | 6996 ft | 176 kts | 22° |
| 2026-05-08 20:28 | 37.92685 | -79.61573 | 7003 ft | 175 kts | 22° |
| 2026-05-08 20:29 | 37.93783 | -79.60916 | 7009 ft | 175 kts | 22° |
| 2026-05-08 20:29 | 37.94887 | -79.60254 | 7008 ft | 175 kts | 22° |
| 2026-05-08 20:29 | 37.95984 | -79.59618 | 6989 ft | 175 kts | 17° |
| 2026-05-08 20:29 | 37.97167 | -79.59437 | 6981 ft | 170 kts | 351° |
| 2026-05-08 20:30 | 37.98282 | -79.59843 | 6981 ft | 165 kts | 328° |
| 2026-05-08 20:30 | 37.99275 | -79.60607 | 6987 ft | 165 kts | 324° |
| 2026-05-08 20:30 | 38.00238 | -79.61334 | 6983 ft | 162 kts | 325° |
| 2026-05-08 20:30 | 38.01204 | -79.62068 | 6991 ft | 161 kts | 324° |
| 2026-05-08 20:31 | 38.02132 | -79.62830 | 7005 ft | 154 kts | 315° |
| 2026-05-08 20:31 | 38.02716 | -79.63723 | 6979 ft | 116 kts | 296° |
| 2026-05-08 20:31 | 38.03032 | -79.64663 | 6919 ft | 118 kts | 282° |
| 2026-05-08 20:31 | 38.03134 | -79.65623 | 6770 ft | 103 kts | 268° |
| 2026-05-08 20:32 | 38.03039 | -79.66580 | 6657 ft | 119 kts | 256° |
| 2026-05-08 20:32 | 38.02754 | -79.67465 | 6503 ft | 99 kts | 242° |
| 2026-05-08 20:32 | 38.02365 | -79.68270 | 6385 ft | 117 kts | 240° |
| 2026-05-08 20:32 | 38.01973 | -79.69098 | 6214 ft | 100 kts | 240° |
| 2026-05-08 20:33 | 38.01591 | -79.69901 | 6083 ft | 117 kts | 240° |
| 2026-05-08 20:33 | 38.01190 | -79.70744 | 5930 ft | 101 kts | 239° |
| 2026-05-08 20:33 | 38.00808 | -79.71541 | 5786 ft | 113 kts | 240° |
| 2026-05-08 20:33 | 38.00415 | -79.72367 | 5625 ft | 101 kts | 240° |
| 2026-05-08 20:34 | 38.00051 | -79.73133 | 5500 ft | 108 kts | 240° |
| 2026-05-08 20:34 | 37.99652 | -79.73967 | 5353 ft | 108 kts | 239° |
| 2026-05-08 20:34 | 37.98885 | -79.75570 | 5052 ft | 104 kts | 240° |
| 2026-05-08 20:35 | 37.98511 | -79.76366 | 4931 ft | 107 kts | 241° |
| 2026-05-08 20:35 | 37.98105 | -79.77218 | 4770 ft | 115 kts | 240° |
| 2026-05-08 20:35 | 37.97688 | -79.78061 | 4611 ft | 112 kts | 240° |
| 2026-05-08 20:35 | 37.97310 | -79.78860 | 4467 ft | 106 kts | 242° |
| 2026-05-08 20:36 | 37.96917 | -79.79689 | 4319 ft | 111 kts | 240° |
| 2026-05-08 20:36 | 37.96541 | -79.80462 | 4162 ft | 93 kts | 240° |
| 2026-05-08 20:36 | 37.96215 | -79.81138 | 4063 ft | 89 kts | 241° |
| 2026-05-08 20:36 | 37.95897 | -79.81818 | 3953 ft | 91 kts | 241° |
| 2026-05-08 20:37 | 37.95566 | -79.82512 | 3833 ft | 92 kts | 239° |
| 2026-05-08 20:37 | 37.95266 | -79.83140 | 3781 ft | 73 kts | 239° |
| 2026-05-08 20:37 | 37.95157 | -79.83366 | 3787 ft | 9 kts | 244° |
| 2026-05-08 20:37 | 37.95206 | -79.83436 | 3776 ft | 17 kts | 329° |
| 2026-05-08 20:38 | 37.95218 | -79.83445 | 3775 ft | 0 kts | 329° |
| 2026-05-08 20:40 | 37.95234 | -79.83457 | 3775 ft | 6 kts | 329° |
| 2026-05-08 20:40 | 37.95251 | -79.83488 | 3780 ft | 7 kts | 236° |
| 2026-05-08 20:40 | 37.95275 | -79.83536 | 3775 ft | 10 kts | 329° |
| 2026-05-08 20:40 | 37.95294 | -79.83518 | 3774 ft | 3 kts | 57° |
| 2026-05-08 20:41 | 37.95301 | -79.83505 | 3774 ft | 0 kts | 58° |
| 2026-05-08 20:55 | 37.95301 | -79.83506 | 3774 ft | 0 kts | 58° |